sensor_id;sensor_type;location;lat;lon;timestamp;temperature;humidity
37944;DHT22;23767;42.024;23.086;2024-03-25T00:00:48;5.40;99.90
37944;DHT22;23767;42.024;23.086;2024-03-25T00:03:14;5.10;99.90
37944;DHT22;23767;42.024;23.086;2024-03-25T00:05:39;5.00;99.90
37944;DHT22;23767;42.024;23.086;2024-03-25T00:08:05;4.90;99.90
37944;DHT22;23767;42.024;23.086;2024-03-25T00:10:31;4.90;99.90
37944;DHT22;23767;42.024;23.086;2024-03-25T00:12:57;4.80;99.90
37944;DHT22;23767;42.024;23.086;2024-03-25T00:15:23;4.70;99.90
37944;DHT22;23767;42.024;23.086;2024-03-25T00:17:51;4.80;99.90
37944;DHT22;23767;42.024;23.086;2024-03-25T00:20:17;4.80;99.90
37944;DHT22;23767;42.024;23.086;2024-03-25T00:22:43;4.80;99.90
37944;DHT22;23767;42.024;23.086;2024-03-25T00:25:09;4.90;99.90
37944;DHT22;23767;42.024;23.086;2024-03-25T00:27:35;4.90;99.90
37944;DHT22;23767;42.024;23.086;2024-03-25T00:30:00;5.00;99.90
37944;DHT22;23767;42.024;23.086;2024-03-25T00:32:26;5.00;99.90
37944;DHT22;23767;42.024;23.086;2024-03-25T00:34:52;5.10;99.90
37944;DHT22;23767;42.024;23.086;2024-03-25T00:37:18;5.00;99.90
37944;DHT22;23767;42.024;23.086;2024-03-25T00:39:44;5.00;99.90
37944;DHT22;23767;42.024;23.086;2024-03-25T00:42:10;5.00;99.90
37944;DHT22;23767;42.024;23.086;2024-03-25T00:44:35;4.90;99.90
37944;DHT22;23767;42.024;23.086;2024-03-25T00:47:01;4.90;99.90
37944;DHT22;23767;42.024;23.086;2024-03-25T00:49:35;5.00;99.90
37944;DHT22;23767;42.024;23.086;2024-03-25T00:52:10;4.90;99.90
37944;DHT22;23767;42.024;23.086;2024-03-25T00:54:35;4.90;99.90
37944;DHT22;23767;42.024;23.086;2024-03-25T00:57:01;5.00;99.90
37944;DHT22;23767;42.024;23.086;2024-03-25T00:59:28;5.00;99.90
37944;DHT22;23767;42.024;23.086;2024-03-25T01:01:53;5.00;99.90
37944;DHT22;23767;42.024;23.086;2024-03-25T01:04:19;5.10;99.90
37944;DHT22;23767;42.024;23.086;2024-03-25T01:06:45;5.20;99.90
37944;DHT22;23767;42.024;23.086;2024-03-25T01:09:10;5.40;99.90
37944;DHT22;23767;42.024;23.086;2024-03-25T01:11:36;5.60;99.90
37944;DHT22;23767;42.024;23.086;2024-03-25T01:14:02;5.80;99.90
37944;DHT22;23767;42.024;23.086;2024-03-25T01:16:28;5.80;99.90
37944;DHT22;23767;42.024;23.086;2024-03-25T01:18:53;5.70;99.90
37944;DHT22;23767;42.024;23.086;2024-03-25T01:21:19;5.50;99.90
37944;DHT22;23767;42.024;23.086;2024-03-25T01:23:44;5.50;99.90
37944;DHT22;23767;42.024;23.086;2024-03-25T01:26:10;5.80;99.90
37944;DHT22;23767;42.024;23.086;2024-03-25T01:28:36;5.90;99.90
37944;DHT22;23767;42.024;23.086;2024-03-25T01:31:01;6.10;99.90
37944;DHT22;23767;42.024;23.086;2024-03-25T01:33:27;6.10;99.90
37944;DHT22;23767;42.024;23.086;2024-03-25T01:35:53;6.20;99.90
37944;DHT22;23767;42.024;23.086;2024-03-25T01:38:21;6.40;99.90
37944;DHT22;23767;42.024;23.086;2024-03-25T01:40:47;6.60;99.90
37944;DHT22;23767;42.024;23.086;2024-03-25T01:43:13;6.60;99.90
37944;DHT22;23767;42.024;23.086;2024-03-25T01:45:38;6.70;99.90
37944;DHT22;23767;42.024;23.086;2024-03-25T01:48:08;6.60;99.90
37944;DHT22;23767;42.024;23.086;2024-03-25T01:50:37;6.60;99.90
37944;DHT22;23767;42.024;23.086;2024-03-25T01:53:04;6.40;99.90
37944;DHT22;23767;42.024;23.086;2024-03-25T01:55:32;6.30;99.90
37944;DHT22;23767;42.024;23.086;2024-03-25T01:58:00;6.40;99.90
37944;DHT22;23767;42.024;23.086;2024-03-25T02:00:26;6.40;99.90
37944;DHT22;23767;42.024;23.086;2024-03-25T02:02:52;6.30;99.90
37944;DHT22;23767;42.024;23.086;2024-03-25T02:05:19;6.40;99.90
37944;DHT22;23767;42.024;23.086;2024-03-25T02:07:45;6.40;99.90
37944;DHT22;23767;42.024;23.086;2024-03-25T02:10:12;6.60;99.90
37944;DHT22;23767;42.024;23.086;2024-03-25T02:12:41;6.60;99.90
37944;DHT22;23767;42.024;23.086;2024-03-25T02:15:08;6.40;99.90
37944;DHT22;23767;42.024;23.086;2024-03-25T02:17:35;6.40;99.90
37944;DHT22;23767;42.024;23.086;2024-03-25T02:20:02;6.60;99.90
37944;DHT22;23767;42.024;23.086;2024-03-25T02:22:31;6.90;99.90
37944;DHT22;23767;42.024;23.086;2024-03-25T02:24:58;7.00;99.90
37944;DHT22;23767;42.024;23.086;2024-03-25T02:27:25;7.20;99.90
37944;DHT22;23767;42.024;23.086;2024-03-25T02:29:51;7.30;99.90
37944;DHT22;23767;42.024;23.086;2024-03-25T02:32:16;7.30;99.90
37944;DHT22;23767;42.024;23.086;2024-03-25T02:34:51;7.40;99.90
37944;DHT22;23767;42.024;23.086;2024-03-25T02:37:18;7.40;99.90
37944;DHT22;23767;42.024;23.086;2024-03-25T02:39:44;7.40;99.90
37944;DHT22;23767;42.024;23.086;2024-03-25T02:42:10;7.40;99.90
37944;DHT22;23767;42.024;23.086;2024-03-25T02:44:36;7.40;99.90
37944;DHT22;23767;42.024;23.086;2024-03-25T02:47:02;7.30;99.90
37944;DHT22;23767;42.024;23.086;2024-03-25T02:49:29;7.30;99.90
37944;DHT22;23767;42.024;23.086;2024-03-25T02:51:55;7.30;99.90
37944;DHT22;23767;42.024;23.086;2024-03-25T02:54:20;7.30;99.90
37944;DHT22;23767;42.024;23.086;2024-03-25T02:56:46;7.40;99.90
37944;DHT22;23767;42.024;23.086;2024-03-25T02:59:12;7.20;99.90
37944;DHT22;23767;42.024;23.086;2024-03-25T03:01:40;7.20;99.90
37944;DHT22;23767;42.024;23.086;2024-03-25T03:04:06;7.20;99.90
37944;DHT22;23767;42.024;23.086;2024-03-25T03:06:35;7.40;99.90
37944;DHT22;23767;42.024;23.086;2024-03-25T03:09:00;7.30;99.90
37944;DHT22;23767;42.024;23.086;2024-03-25T03:11:26;7.20;99.90
37944;DHT22;23767;42.024;23.086;2024-03-25T03:13:51;6.80;99.90
37944;DHT22;23767;42.024;23.086;2024-03-25T03:16:17;6.70;99.90
37944;DHT22;23767;42.024;23.086;2024-03-25T03:18:43;6.70;99.90
37944;DHT22;23767;42.024;23.086;2024-03-25T03:21:08;6.70;99.90
37944;DHT22;23767;42.024;23.086;2024-03-25T03:23:34;6.40;99.90
37944;DHT22;23767;42.024;23.086;2024-03-25T03:26:00;6.30;99.90
37944;DHT22;23767;42.024;23.086;2024-03-25T03:28:26;6.50;99.90
37944;DHT22;23767;42.024;23.086;2024-03-25T03:30:53;6.50;99.90
37944;DHT22;23767;42.024;23.086;2024-03-25T03:33:19;6.40;99.90
37944;DHT22;23767;42.024;23.086;2024-03-25T03:35:44;6.30;99.90
37944;DHT22;23767;42.024;23.086;2024-03-25T03:38:10;6.50;99.90
37944;DHT22;23767;42.024;23.086;2024-03-25T03:40:36;6.60;99.90
37944;DHT22;23767;42.024;23.086;2024-03-25T03:43:01;6.60;99.90
37944;DHT22;23767;42.024;23.086;2024-03-25T03:45:33;6.80;99.90
37944;DHT22;23767;42.024;23.086;2024-03-25T03:47:58;6.50;99.90
37944;DHT22;23767;42.024;23.086;2024-03-25T03:50:24;6.60;99.90
37944;DHT22;23767;42.024;23.086;2024-03-25T03:52:50;6.70;99.90
37944;DHT22;23767;42.024;23.086;2024-03-25T03:55:15;6.70;99.90
37944;DHT22;23767;42.024;23.086;2024-03-25T03:57:42;6.80;99.90
37944;DHT22;23767;42.024;23.086;2024-03-25T04:00:09;6.70;99.90
37944;DHT22;23767;42.024;23.086;2024-03-25T04:02:37;6.50;99.90
37944;DHT22;23767;42.024;23.086;2024-03-25T04:05:03;6.40;99.90
37944;DHT22;23767;42.024;23.086;2024-03-25T04:07:29;6.20;99.90
37944;DHT22;23767;42.024;23.086;2024-03-25T04:09:57;6.10;99.90
37944;DHT22;23767;42.024;23.086;2024-03-25T04:12:23;6.00;99.90
37944;DHT22;23767;42.024;23.086;2024-03-25T04:14:49;6.20;99.90
37944;DHT22;23767;42.024;23.086;2024-03-25T04:17:20;6.40;99.90
37944;DHT22;23767;42.024;23.086;2024-03-25T04:19:50;6.40;99.90
37944;DHT22;23767;42.024;23.086;2024-03-25T04:22:15;6.10;99.90
37944;DHT22;23767;42.024;23.086;2024-03-25T04:24:43;5.80;99.90
37944;DHT22;23767;42.024;23.086;2024-03-25T04:27:08;5.50;99.90
37944;DHT22;23767;42.024;23.086;2024-03-25T04:29:34;5.70;99.90
37944;DHT22;23767;42.024;23.086;2024-03-25T04:31:59;5.90;99.90
37944;DHT22;23767;42.024;23.086;2024-03-25T04:34:25;6.10;99.90
37944;DHT22;23767;42.024;23.086;2024-03-25T04:36:51;6.20;99.90
37944;DHT22;23767;42.024;23.086;2024-03-25T04:39:16;6.30;99.90
37944;DHT22;23767;42.024;23.086;2024-03-25T04:41:43;6.20;99.90
37944;DHT22;23767;42.024;23.086;2024-03-25T04:44:09;6.10;99.90
37944;DHT22;23767;42.024;23.086;2024-03-25T04:46:35;6.00;99.90
37944;DHT22;23767;42.024;23.086;2024-03-25T04:49:00;6.00;99.90
37944;DHT22;23767;42.024;23.086;2024-03-25T04:51:26;5.90;99.90
37944;DHT22;23767;42.024;23.086;2024-03-25T04:53:52;5.80;99.90
37944;DHT22;23767;42.024;23.086;2024-03-25T04:56:18;5.80;99.90
37944;DHT22;23767;42.024;23.086;2024-03-25T04:58:44;5.70;99.90
37944;DHT22;23767;42.024;23.086;2024-03-25T05:01:10;5.90;99.90
37944;DHT22;23767;42.024;23.086;2024-03-25T05:03:35;5.70;99.90
37944;DHT22;23767;42.024;23.086;2024-03-25T05:06:02;6.00;99.90
37944;DHT22;23767;42.024;23.086;2024-03-25T05:08:30;6.20;99.90
37944;DHT22;23767;42.024;23.086;2024-03-25T05:10:56;6.20;99.90
37944;DHT22;23767;42.024;23.086;2024-03-25T05:13:22;6.40;99.90
37944;DHT22;23767;42.024;23.086;2024-03-25T05:15:51;6.50;99.90
37944;DHT22;23767;42.024;23.086;2024-03-25T05:18:18;6.60;99.90
37944;DHT22;23767;42.024;23.086;2024-03-25T05:20:44;6.70;99.90
37944;DHT22;23767;42.024;23.086;2024-03-25T05:23:09;6.50;99.90
37944;DHT22;23767;42.024;23.086;2024-03-25T05:25:36;6.70;99.90
37944;DHT22;23767;42.024;23.086;2024-03-25T05:28:02;6.80;99.90
37944;DHT22;23767;42.024;23.086;2024-03-25T05:30:27;6.90;99.90
37944;DHT22;23767;42.024;23.086;2024-03-25T05:32:53;6.90;99.90
37944;DHT22;23767;42.024;23.086;2024-03-25T05:35:19;7.00;99.90
37944;DHT22;23767;42.024;23.086;2024-03-25T05:37:45;7.00;99.90
37944;DHT22;23767;42.024;23.086;2024-03-25T05:40:11;7.20;99.90
37944;DHT22;23767;42.024;23.086;2024-03-25T05:42:40;7.20;99.90
37944;DHT22;23767;42.024;23.086;2024-03-25T05:45:06;7.10;99.90
37944;DHT22;23767;42.024;23.086;2024-03-25T05:47:32;7.00;99.90
37944;DHT22;23767;42.024;23.086;2024-03-25T05:49:58;7.10;99.90
37944;DHT22;23767;42.024;23.086;2024-03-25T05:52:28;7.10;99.90
37944;DHT22;23767;42.024;23.086;2024-03-25T05:54:54;7.00;99.90
37944;DHT22;23767;42.024;23.086;2024-03-25T05:57:19;6.80;99.90
37944;DHT22;23767;42.024;23.086;2024-03-25T05:59:46;6.70;99.90
37944;DHT22;23767;42.024;23.086;2024-03-25T06:02:11;6.70;99.90
37944;DHT22;23767;42.024;23.086;2024-03-25T06:04:37;6.60;99.90
37944;DHT22;23767;42.024;23.086;2024-03-25T06:07:03;6.70;99.90
37944;DHT22;23767;42.024;23.086;2024-03-25T06:09:29;6.60;99.90
37944;DHT22;23767;42.024;23.086;2024-03-25T06:11:54;6.80;99.90
37944;DHT22;23767;42.024;23.086;2024-03-25T06:14:20;7.10;99.90
37944;DHT22;23767;42.024;23.086;2024-03-25T06:16:45;7.10;99.90
37944;DHT22;23767;42.024;23.086;2024-03-25T06:19:11;7.20;99.90
37944;DHT22;23767;42.024;23.086;2024-03-25T06:21:36;7.20;99.90
37944;DHT22;23767;42.024;23.086;2024-03-25T06:24:02;7.20;99.90
37944;DHT22;23767;42.024;23.086;2024-03-25T06:26:28;6.90;99.90
37944;DHT22;23767;42.024;23.086;2024-03-25T06:28:53;6.70;99.90
37944;DHT22;23767;42.024;23.086;2024-03-25T06:31:19;6.50;99.90
37944;DHT22;23767;42.024;23.086;2024-03-25T06:34:03;6.40;99.90
37944;DHT22;23767;42.024;23.086;2024-03-25T06:36:50;6.70;99.90
37944;DHT22;23767;42.024;23.086;2024-03-25T06:39:15;6.80;99.90
37944;DHT22;23767;42.024;23.086;2024-03-25T06:41:41;7.10;99.90
37944;DHT22;23767;42.024;23.086;2024-03-25T06:44:07;7.30;99.90
37944;DHT22;23767;42.024;23.086;2024-03-25T06:46:33;7.30;99.90
37944;DHT22;23767;42.024;23.086;2024-03-25T06:48:59;7.10;99.90
37944;DHT22;23767;42.024;23.086;2024-03-25T06:51:25;7.20;99.90
37944;DHT22;23767;42.024;23.086;2024-03-25T06:53:50;7.30;99.90
37944;DHT22;23767;42.024;23.086;2024-03-25T06:56:16;7.30;99.90
37944;DHT22;23767;42.024;23.086;2024-03-25T06:58:42;7.30;99.90
37944;DHT22;23767;42.024;23.086;2024-03-25T07:01:09;7.40;99.90
37944;DHT22;23767;42.024;23.086;2024-03-25T07:03:38;7.50;99.90
37944;DHT22;23767;42.024;23.086;2024-03-25T07:06:04;7.30;99.90
37944;DHT22;23767;42.024;23.086;2024-03-25T07:08:30;7.10;99.90
37944;DHT22;23767;42.024;23.086;2024-03-25T07:10:56;7.10;99.90
37944;DHT22;23767;42.024;23.086;2024-03-25T07:13:22;7.20;99.90
37944;DHT22;23767;42.024;23.086;2024-03-25T07:15:48;7.00;99.90
37944;DHT22;23767;42.024;23.086;2024-03-25T07:18:14;7.00;99.90
37944;DHT22;23767;42.024;23.086;2024-03-25T07:20:40;7.00;99.90
37944;DHT22;23767;42.024;23.086;2024-03-25T07:23:05;7.00;99.90
37944;DHT22;23767;42.024;23.086;2024-03-25T07:25:31;6.90;99.90
37944;DHT22;23767;42.024;23.086;2024-03-25T07:27:57;7.00;99.90
37944;DHT22;23767;42.024;23.086;2024-03-25T07:30:24;6.90;99.90
37944;DHT22;23767;42.024;23.086;2024-03-25T07:32:56;7.10;99.90
37944;DHT22;23767;42.024;23.086;2024-03-25T07:35:22;7.20;99.90
37944;DHT22;23767;42.024;23.086;2024-03-25T07:37:48;7.20;99.90
37944;DHT22;23767;42.024;23.086;2024-03-25T07:40:17;7.20;99.90
37944;DHT22;23767;42.024;23.086;2024-03-25T07:42:43;7.20;99.90
37944;DHT22;23767;42.024;23.086;2024-03-25T07:45:09;7.10;99.90
37944;DHT22;23767;42.024;23.086;2024-03-25T07:47:35;7.00;99.90
37944;DHT22;23767;42.024;23.086;2024-03-25T07:50:01;7.10;99.90
37944;DHT22;23767;42.024;23.086;2024-03-25T07:52:27;7.20;99.90
37944;DHT22;23767;42.024;23.086;2024-03-25T07:54:53;7.10;99.90
37944;DHT22;23767;42.024;23.086;2024-03-25T07:57:19;7.10;99.90
37944;DHT22;23767;42.024;23.086;2024-03-25T07:59:45;7.30;99.90
37944;DHT22;23767;42.024;23.086;2024-03-25T08:02:11;7.40;99.90
37944;DHT22;23767;42.024;23.086;2024-03-25T08:04:45;7.50;99.90
37944;DHT22;23767;42.024;23.086;2024-03-25T08:07:11;7.50;99.90
37944;DHT22;23767;42.024;23.086;2024-03-25T08:09:37;7.40;99.90
37944;DHT22;23767;42.024;23.086;2024-03-25T08:12:02;7.50;99.90
37944;DHT22;23767;42.024;23.086;2024-03-25T08:14:28;7.60;99.90
37944;DHT22;23767;42.024;23.086;2024-03-25T08:16:54;7.80;99.90
37944;DHT22;23767;42.024;23.086;2024-03-25T08:19:19;7.90;99.90
37944;DHT22;23767;42.024;23.086;2024-03-25T08:21:45;8.00;99.90
37944;DHT22;23767;42.024;23.086;2024-03-25T08:24:11;8.00;99.90
37944;DHT22;23767;42.024;23.086;2024-03-25T08:26:36;7.90;99.90
37944;DHT22;23767;42.024;23.086;2024-03-25T08:29:02;8.00;99.90
37944;DHT22;23767;42.024;23.086;2024-03-25T08:31:29;8.20;99.90
37944;DHT22;23767;42.024;23.086;2024-03-25T08:33:54;8.10;99.90
37944;DHT22;23767;42.024;23.086;2024-03-25T08:36:20;8.10;99.90
37944;DHT22;23767;42.024;23.086;2024-03-25T08:38:46;8.30;99.90
37944;DHT22;23767;42.024;23.086;2024-03-25T08:41:11;8.30;99.90
37944;DHT22;23767;42.024;23.086;2024-03-25T08:43:37;8.30;99.90
37944;DHT22;23767;42.024;23.086;2024-03-25T08:46:03;8.40;99.90
37944;DHT22;23767;42.024;23.086;2024-03-25T08:48:29;8.60;99.90
37944;DHT22;23767;42.024;23.086;2024-03-25T08:50:55;8.50;99.90
37944;DHT22;23767;42.024;23.086;2024-03-25T08:53:20;8.70;99.90
37944;DHT22;23767;42.024;23.086;2024-03-25T08:55:47;8.70;99.90
37944;DHT22;23767;42.024;23.086;2024-03-25T08:58:13;8.80;99.90
37944;DHT22;23767;42.024;23.086;2024-03-25T09:00:39;8.80;99.90
37944;DHT22;23767;42.024;23.086;2024-03-25T09:03:05;8.70;99.40
37944;DHT22;23767;42.024;23.086;2024-03-25T09:05:31;8.80;99.90
37944;DHT22;23767;42.024;23.086;2024-03-25T09:07:56;8.90;99.40
37944;DHT22;23767;42.024;23.086;2024-03-25T09:10:24;8.90;99.90
37944;DHT22;23767;42.024;23.086;2024-03-25T09:13:08;8.90;98.70
37944;DHT22;23767;42.024;23.086;2024-03-25T09:15:34;9.10;99.80
37944;DHT22;23767;42.024;23.086;2024-03-25T09:18:00;9.20;98.20
37944;DHT22;23767;42.024;23.086;2024-03-25T09:20:27;9.30;96.50
37944;DHT22;23767;42.024;23.086;2024-03-25T09:22:53;9.40;97.00
37944;DHT22;23767;42.024;23.086;2024-03-25T09:25:19;9.20;95.50
37944;DHT22;23767;42.024;23.086;2024-03-25T09:27:48;9.00;94.70
37944;DHT22;23767;42.024;23.086;2024-03-25T09:30:15;9.00;96.20
37944;DHT22;23767;42.024;23.086;2024-03-25T09:32:41;9.00;97.60
37944;DHT22;23767;42.024;23.086;2024-03-25T09:35:11;8.90;97.90
37944;DHT22;23767;42.024;23.086;2024-03-25T09:37:37;8.90;97.60
37944;DHT22;23767;42.024;23.086;2024-03-25T09:40:03;9.10;97.80
37944;DHT22;23767;42.024;23.086;2024-03-25T09:42:36;9.40;96.50
37944;DHT22;23767;42.024;23.086;2024-03-25T09:45:08;9.40;95.00
37944;DHT22;23767;42.024;23.086;2024-03-25T09:47:35;9.20;94.50
37944;DHT22;23767;42.024;23.086;2024-03-25T09:50:03;9.30;94.90
37944;DHT22;23767;42.024;23.086;2024-03-25T09:52:30;9.30;96.10
37944;DHT22;23767;42.024;23.086;2024-03-25T09:54:55;9.40;94.30
37944;DHT22;23767;42.024;23.086;2024-03-25T09:57:21;9.30;96.90
37944;DHT22;23767;42.024;23.086;2024-03-25T09:59:48;9.30;96.00
37944;DHT22;23767;42.024;23.086;2024-03-25T10:02:14;9.20;96.00
37944;DHT22;23767;42.024;23.086;2024-03-25T10:04:45;9.10;95.80
37944;DHT22;23767;42.024;23.086;2024-03-25T10:07:21;9.00;96.70
37944;DHT22;23767;42.024;23.086;2024-03-25T10:09:48;9.00;95.00
37944;DHT22;23767;42.024;23.086;2024-03-25T10:12:13;9.20;95.00
37944;DHT22;23767;42.024;23.086;2024-03-25T10:14:42;9.20;95.80
37944;DHT22;23767;42.024;23.086;2024-03-25T10:17:09;9.70;93.70
37944;DHT22;23767;42.024;23.086;2024-03-25T10:19:34;9.70;92.90
37944;DHT22;23767;42.024;23.086;2024-03-25T10:22:08;9.80;94.50
37944;DHT22;23767;42.024;23.086;2024-03-25T10:24:44;9.70;93.00
37944;DHT22;23767;42.024;23.086;2024-03-25T10:27:17;9.40;92.50
37944;DHT22;23767;42.024;23.086;2024-03-25T10:29:43;9.50;93.50
37944;DHT22;23767;42.024;23.086;2024-03-25T10:32:09;9.60;93.00
37944;DHT22;23767;42.024;23.086;2024-03-25T10:34:34;9.60;92.90
37944;DHT22;23767;42.024;23.086;2024-03-25T10:37:01;9.40;92.80
37944;DHT22;23767;42.024;23.086;2024-03-25T10:39:31;9.50;95.10
37944;DHT22;23767;42.024;23.086;2024-03-25T10:41:58;9.70;95.10
37944;DHT22;23767;42.024;23.086;2024-03-25T10:44:29;9.80;94.20
37944;DHT22;23767;42.024;23.086;2024-03-25T10:46:58;10.00;94.30
37944;DHT22;23767;42.024;23.086;2024-03-25T10:49:42;9.90;95.30
37944;DHT22;23767;42.024;23.086;2024-03-25T10:52:11;9.90;93.00
37944;DHT22;23767;42.024;23.086;2024-03-25T10:54:39;10.00;93.50
37944;DHT22;23767;42.024;23.086;2024-03-25T10:57:07;9.60;92.70
37944;DHT22;23767;42.024;23.086;2024-03-25T10:59:35;9.70;93.60
37944;DHT22;23767;42.024;23.086;2024-03-25T11:02:07;9.40;92.20
37944;DHT22;23767;42.024;23.086;2024-03-25T11:04:32;9.30;93.00
37944;DHT22;23767;42.024;23.086;2024-03-25T11:07:09;9.40;92.10
37944;DHT22;23767;42.024;23.086;2024-03-25T11:09:36;9.70;90.80
37944;DHT22;23767;42.024;23.086;2024-03-25T11:12:02;9.90;91.50
37944;DHT22;23767;42.024;23.086;2024-03-25T11:14:28;10.00;91.50
37944;DHT22;23767;42.024;23.086;2024-03-25T11:16:55;10.10;86.80
37944;DHT22;23767;42.024;23.086;2024-03-25T11:19:25;9.90;89.50
37944;DHT22;23767;42.024;23.086;2024-03-25T11:21:51;9.90;89.40
37944;DHT22;23767;42.024;23.086;2024-03-25T11:24:27;10.10;83.80
37944;DHT22;23767;42.024;23.086;2024-03-25T11:26:53;10.10;82.00
37944;DHT22;23767;42.024;23.086;2024-03-25T11:29:19;10.40;84.30
37944;DHT22;23767;42.024;23.086;2024-03-25T11:31:45;10.50;80.90
37944;DHT22;23767;42.024;23.086;2024-03-25T11:34:11;10.40;78.60
37944;DHT22;23767;42.024;23.086;2024-03-25T11:36:36;10.50;78.90
37944;DHT22;23767;42.024;23.086;2024-03-25T11:39:03;10.30;78.70
37944;DHT22;23767;42.024;23.086;2024-03-25T11:41:33;9.90;80.00
37944;DHT22;23767;42.024;23.086;2024-03-25T11:43:59;9.80;80.40
37944;DHT22;23767;42.024;23.086;2024-03-25T11:46:26;9.80;82.90
37944;DHT22;23767;42.024;23.086;2024-03-25T11:48:52;9.70;82.80
37944;DHT22;23767;42.024;23.086;2024-03-25T11:51:19;9.70;83.00
37944;DHT22;23767;42.024;23.086;2024-03-25T11:53:44;10.10;81.40
37944;DHT22;23767;42.024;23.086;2024-03-25T11:56:11;10.60;80.80
37944;DHT22;23767;42.024;23.086;2024-03-25T11:58:38;10.90;77.80
37944;DHT22;23767;42.024;23.086;2024-03-25T12:01:04;10.80;73.80
37944;DHT22;23767;42.024;23.086;2024-03-25T12:03:30;10.70;74.70
37944;DHT22;23767;42.024;23.086;2024-03-25T12:05:56;10.70;76.50
37944;DHT22;23767;42.024;23.086;2024-03-25T12:08:23;10.70;78.50
37944;DHT22;23767;42.024;23.086;2024-03-25T12:10:51;10.50;81.60
37944;DHT22;23767;42.024;23.086;2024-03-25T12:13:37;10.50;80.20
37944;DHT22;23767;42.024;23.086;2024-03-25T12:16:06;10.20;76.80
37944;DHT22;23767;42.024;23.086;2024-03-25T12:18:34;10.10;78.20
37944;DHT22;23767;42.024;23.086;2024-03-25T12:21:01;10.20;75.20
37944;DHT22;23767;42.024;23.086;2024-03-25T12:23:34;10.40;76.20
37944;DHT22;23767;42.024;23.086;2024-03-25T12:26:01;10.80;76.10
37944;DHT22;23767;42.024;23.086;2024-03-25T12:28:27;10.80;76.10
37944;DHT22;23767;42.024;23.086;2024-03-25T12:30:54;10.90;76.70
37944;DHT22;23767;42.024;23.086;2024-03-25T12:33:23;10.50;77.60
37944;DHT22;23767;42.024;23.086;2024-03-25T12:35:50;10.20;82.40
37944;DHT22;23767;42.024;23.086;2024-03-25T12:38:30;9.70;83.30
37944;DHT22;23767;42.024;23.086;2024-03-25T12:41:12;9.10;89.70
37944;DHT22;23767;42.024;23.086;2024-03-25T12:43:44;9.00;94.80
37944;DHT22;23767;42.024;23.086;2024-03-25T12:46:10;9.00;94.10
37944;DHT22;23767;42.024;23.086;2024-03-25T12:48:36;9.10;95.30
37944;DHT22;23767;42.024;23.086;2024-03-25T12:51:04;9.40;93.70
37944;DHT22;23767;42.024;23.086;2024-03-25T12:53:30;9.80;92.00
37944;DHT22;23767;42.024;23.086;2024-03-25T12:55:56;10.00;89.30
37944;DHT22;23767;42.024;23.086;2024-03-25T12:58:22;10.20;87.70
37944;DHT22;23767;42.024;23.086;2024-03-25T13:00:48;10.30;85.50
37944;DHT22;23767;42.024;23.086;2024-03-25T13:03:38;10.20;85.70
37944;DHT22;23767;42.024;23.086;2024-03-25T13:06:04;10.20;86.50
37944;DHT22;23767;42.024;23.086;2024-03-25T13:08:29;10.20;86.00
37944;DHT22;23767;42.024;23.086;2024-03-25T13:10:55;10.40;84.80
37944;DHT22;23767;42.024;23.086;2024-03-25T13:13:21;10.50;85.40
37944;DHT22;23767;42.024;23.086;2024-03-25T13:15:46;10.40;83.30
37944;DHT22;23767;42.024;23.086;2024-03-25T13:18:12;10.50;83.30
37944;DHT22;23767;42.024;23.086;2024-03-25T13:20:38;10.50;78.50
37944;DHT22;23767;42.024;23.086;2024-03-25T13:23:03;10.80;80.20
37944;DHT22;23767;42.024;23.086;2024-03-25T13:25:29;11.10;80.60
37944;DHT22;23767;42.024;23.086;2024-03-25T13:28:06;11.10;75.70
37944;DHT22;23767;42.024;23.086;2024-03-25T13:30:32;11.20;75.30
37944;DHT22;23767;42.024;23.086;2024-03-25T13:32:58;11.10;76.40
37944;DHT22;23767;42.024;23.086;2024-03-25T13:35:24;11.10;77.40
37944;DHT22;23767;42.024;23.086;2024-03-25T13:37:50;11.40;77.10
37944;DHT22;23767;42.024;23.086;2024-03-25T13:40:15;11.60;76.90
37944;DHT22;23767;42.024;23.086;2024-03-25T13:42:41;11.70;75.90
37944;DHT22;23767;42.024;23.086;2024-03-25T13:45:07;11.90;74.70
37944;DHT22;23767;42.024;23.086;2024-03-25T13:47:32;11.30;70.60
37944;DHT22;23767;42.024;23.086;2024-03-25T13:50:05;11.20;71.40
37944;DHT22;23767;42.024;23.086;2024-03-25T13:52:34;11.10;71.40
37944;DHT22;23767;42.024;23.086;2024-03-25T13:55:01;10.90;73.30
37944;DHT22;23767;42.024;23.086;2024-03-25T13:57:27;10.70;73.40
37944;DHT22;23767;42.024;23.086;2024-03-25T13:59:53;10.80;76.60
37944;DHT22;23767;42.024;23.086;2024-03-25T14:02:18;10.90;73.50
37944;DHT22;23767;42.024;23.086;2024-03-25T14:04:44;10.80;76.30
37944;DHT22;23767;42.024;23.086;2024-03-25T14:07:11;10.90;78.20
37944;DHT22;23767;42.024;23.086;2024-03-25T14:09:36;10.70;82.70
37944;DHT22;23767;42.024;23.086;2024-03-25T14:12:02;10.30;86.20
37944;DHT22;23767;42.024;23.086;2024-03-25T14:14:29;10.00;87.80
37944;DHT22;23767;42.024;23.086;2024-03-25T14:16:54;9.80;90.70
37944;DHT22;23767;42.024;23.086;2024-03-25T14:19:20;9.90;91.90
37944;DHT22;23767;42.024;23.086;2024-03-25T14:21:48;10.10;93.10
37944;DHT22;23767;42.024;23.086;2024-03-25T14:24:14;10.00;92.50
37944;DHT22;23767;42.024;23.086;2024-03-25T14:26:39;9.90;93.80
37944;DHT22;23767;42.024;23.086;2024-03-25T14:29:05;10.00;94.70
37944;DHT22;23767;42.024;23.086;2024-03-25T14:31:31;10.00;94.70
37944;DHT22;23767;42.024;23.086;2024-03-25T14:33:58;9.80;94.10
37944;DHT22;23767;42.024;23.086;2024-03-25T14:36:24;10.00;91.70
37944;DHT22;23767;42.024;23.086;2024-03-25T14:38:49;10.10;91.90
37944;DHT22;23767;42.024;23.086;2024-03-25T14:41:19;10.00;91.60
37944;DHT22;23767;42.024;23.086;2024-03-25T14:43:45;10.00;90.50
37944;DHT22;23767;42.024;23.086;2024-03-25T14:46:11;9.90;91.30
37944;DHT22;23767;42.024;23.086;2024-03-25T14:48:37;9.50;91.50
37944;DHT22;23767;42.024;23.086;2024-03-25T14:51:02;9.30;93.90
37944;DHT22;23767;42.024;23.086;2024-03-25T14:53:28;9.50;93.90
37944;DHT22;23767;42.024;23.086;2024-03-25T14:55:54;9.80;93.00
37944;DHT22;23767;42.024;23.086;2024-03-25T14:58:19;10.10;91.50
37944;DHT22;23767;42.024;23.086;2024-03-25T15:00:45;10.10;90.60
37944;DHT22;23767;42.024;23.086;2024-03-25T15:03:11;10.10;84.50
37944;DHT22;23767;42.024;23.086;2024-03-25T15:05:36;10.30;80.20
37944;DHT22;23767;42.024;23.086;2024-03-25T15:08:02;10.40;77.10
37944;DHT22;23767;42.024;23.086;2024-03-25T15:10:27;10.30;74.30
37944;DHT22;23767;42.024;23.086;2024-03-25T15:12:54;10.30;75.20
37944;DHT22;23767;42.024;23.086;2024-03-25T15:15:19;10.10;75.60
37944;DHT22;23767;42.024;23.086;2024-03-25T15:17:45;10.00;76.40
37944;DHT22;23767;42.024;23.086;2024-03-25T15:20:11;9.90;75.70
37944;DHT22;23767;42.024;23.086;2024-03-25T15:22:37;10.00;77.80
37944;DHT22;23767;42.024;23.086;2024-03-25T15:25:04;10.10;77.50